createdAt,value
2022-08-26T00:01:57.454Z,22.94
2022-08-26T00:04:29.984Z,22.90
2022-08-26T00:07:01.737Z,22.90
2022-08-26T00:09:37.252Z,22.90
2022-08-26T00:12:12.391Z,22.88
2022-08-26T00:14:44.265Z,22.86
2022-08-26T00:17:15.937Z,22.84
2022-08-26T00:19:47.538Z,22.82
2022-08-26T00:22:21.596Z,22.79
2022-08-26T00:24:53.357Z,22.75
2022-08-26T00:27:25.020Z,22.74
2022-08-26T00:29:57.335Z,22.73
2022-08-26T00:32:30.134Z,22.72
2022-08-26T00:35:04.449Z,22.67
2022-08-26T00:37:35.988Z,22.63
2022-08-26T00:40:13.222Z,22.62
2022-08-26T00:42:45.917Z,22.59
2022-08-26T00:45:18.347Z,22.51
2022-08-26T00:47:54.680Z,22.39
2022-08-26T00:50:32.941Z,22.34
2022-08-26T00:53:23.837Z,22.30
2022-08-26T00:56:13.274Z,22.30
2022-08-26T00:58:48.935Z,22.31
2022-08-26T01:01:22.931Z,22.30
2022-08-26T01:03:55.660Z,22.30
2022-08-26T01:06:28.534Z,22.27
2022-08-26T01:09:05.225Z,22.26
2022-08-26T01:11:40.300Z,22.24
2022-08-26T01:14:13.577Z,22.22
2022-08-26T01:16:45.734Z,22.18
2022-08-26T01:19:24.989Z,22.17
2022-08-26T01:22:00.140Z,22.13
2022-08-26T01:24:31.895Z,22.08
2022-08-26T01:27:07.652Z,22.03
2022-08-26T01:29:42.689Z,22.01
2022-08-26T01:32:18.616Z,21.99
2022-08-26T01:34:50.861Z,21.95
2022-08-26T01:37:28.871Z,21.91
2022-08-26T01:40:00.793Z,21.87
2022-08-26T01:42:32.894Z,21.84
2022-08-26T01:45:16.447Z,21.82
2022-08-26T01:47:49.994Z,21.81
2022-08-26T01:50:35.155Z,21.80
2022-08-26T01:53:10.798Z,21.79
2022-08-26T01:55:46.131Z,21.75
2022-08-26T01:58:30.380Z,21.71
2022-08-26T02:01:02.976Z,21.70
2022-08-26T02:03:39.705Z,21.69
2022-08-26T02:06:15.001Z,21.67
2022-08-26T02:08:50.663Z,21.67
2022-08-26T02:11:22.949Z,21.64
2022-08-26T02:14:02.812Z,21.61
2022-08-26T02:16:39.641Z,21.60
2022-08-26T02:19:20.378Z,21.60
2022-08-26T02:21:53.748Z,21.59
2022-08-26T02:24:29.780Z,21.58
2022-08-26T02:27:01.573Z,21.56
2022-08-26T02:29:38.318Z,21.55
2022-08-26T02:32:10.227Z,21.53
2022-08-26T02:34:41.885Z,21.54
2022-08-26T02:37:14.183Z,21.53
2022-08-26T02:39:45.889Z,21.50
2022-08-26T02:42:19.929Z,21.47
2022-08-26T02:44:51.920Z,21.47
2022-08-26T02:47:24.772Z,21.43
2022-08-26T02:49:56.917Z,21.40
2022-08-26T02:52:28.606Z,21.37
2022-08-26T02:55:00.218Z,21.34
2022-08-26T02:57:33.185Z,21.32
2022-08-26T03:00:07.205Z,21.30
2022-08-26T03:02:38.825Z,21.30
2022-08-26T03:05:11.366Z,21.29
2022-08-26T03:07:43.470Z,21.26
2022-08-26T03:10:18.479Z,21.25
2022-08-26T03:12:50.135Z,21.26
2022-08-26T03:15:24.372Z,21.23
2022-08-26T03:17:56.292Z,21.19
2022-08-26T03:20:28.757Z,21.18
2022-08-26T03:23:04.393Z,21.18
2022-08-26T03:25:36.039Z,21.16
2022-08-26T03:28:09.518Z,21.13
2022-08-26T03:30:44.639Z,21.12
2022-08-26T03:33:16.945Z,21.10
2022-08-26T03:35:50.666Z,21.10
2022-08-26T03:38:25.169Z,21.06
2022-08-26T03:40:56.651Z,21.04
2022-08-26T03:43:28.839Z,21.01
2022-08-26T03:46:08.590Z,21.00
2022-08-26T03:48:40.611Z,20.99
2022-08-26T03:51:19.418Z,21.00
2022-08-26T03:53:51.015Z,20.96
2022-08-26T03:56:22.712Z,20.95
2022-08-26T03:58:54.765Z,20.94
2022-08-26T04:01:27.595Z,20.93
2022-08-26T04:04:00.424Z,20.93
2022-08-26T04:06:35.705Z,20.93
2022-08-26T04:09:10.394Z,20.91
2022-08-26T04:11:43.825Z,20.89
2022-08-26T04:14:20.059Z,20.86
2022-08-26T04:16:55.382Z,20.83
2022-08-26T04:19:27.057Z,20.82
2022-08-26T04:21:59.169Z,20.82
2022-08-26T04:24:32.896Z,20.84
2022-08-26T04:27:04.770Z,20.85
2022-08-26T04:29:43.580Z,20.86
2022-08-26T04:32:15.694Z,20.88
2022-08-26T04:34:48.077Z,20.89
2022-08-26T04:37:20.302Z,20.92
2022-08-26T04:39:54.352Z,20.96
2022-08-26T04:42:26.349Z,20.94
2022-08-26T04:45:01.124Z,20.95
2022-08-26T04:47:32.806Z,21.01
2022-08-26T04:50:05.089Z,21.10
2022-08-26T04:52:38.921Z,21.19
2022-08-26T04:55:10.705Z,21.28
2022-08-26T04:57:43.117Z,21.37
2022-08-26T05:00:15.407Z,21.45
2022-08-26T05:02:47.106Z,21.54
2022-08-26T05:05:23.505Z,21.64
2022-08-26T05:07:55.101Z,21.76
2022-08-26T05:10:27.024Z,21.87
2022-08-26T05:13:00.260Z,21.98
2022-08-26T05:15:31.836Z,22.08
2022-08-26T05:18:07.781Z,22.15
2022-08-26T05:20:41.581Z,22.28
2022-08-26T05:23:14.782Z,22.44
2022-08-26T05:25:48.816Z,22.53
2022-08-26T05:28:22.110Z,22.72
2022-08-26T05:30:54.306Z,22.94
2022-08-26T05:33:25.977Z,23.10
2022-08-26T05:35:57.612Z,23.19
2022-08-26T05:38:30.262Z,23.26
2022-08-26T05:41:02.601Z,23.37
2022-08-26T05:43:38.439Z,23.56
2022-08-26T05:46:10.561Z,23.79
2022-08-26T05:48:44.208Z,24.07
2022-08-26T05:51:16.190Z,24.30
2022-08-26T05:53:54.585Z,24.47
2022-08-26T05:56:27.831Z,24.56
2022-08-26T05:59:03.283Z,24.67
2022-08-26T06:01:36.143Z,24.84
2022-08-26T06:04:07.947Z,25.05
2022-08-26T06:06:42.685Z,25.34
2022-08-26T06:09:17.438Z,25.67
2022-08-26T06:11:50.189Z,26.00
2022-08-26T06:14:22.972Z,26.26
2022-08-26T06:16:54.955Z,26.47
2022-08-26T06:19:32.797Z,26.68
2022-08-26T06:22:24.868Z,26.88
2022-08-26T06:25:15.850Z,27.18
2022-08-26T06:27:48.870Z,27.45
2022-08-26T06:30:21.063Z,27.69
2022-08-26T06:32:54.228Z,28.01
2022-08-26T06:35:26.709Z,27.81
2022-08-26T06:37:58.425Z,27.88
2022-08-26T06:40:30.156Z,28.11
2022-08-26T06:43:01.977Z,28.39
2022-08-26T06:45:34.714Z,28.77
2022-08-26T06:48:07.537Z,29.11
2022-08-26T06:50:40.859Z,29.10
2022-08-26T06:53:13.636Z,29.36
2022-08-26T06:55:46.911Z,29.81
2022-08-26T06:58:23.469Z,30.03
2022-08-26T07:01:01.991Z,30.00
2022-08-26T07:03:39.628Z,30.02
2022-08-26T07:06:11.836Z,30.08
2022-08-26T07:08:43.421Z,30.13
2022-08-26T07:11:16.416Z,30.21
2022-08-26T07:13:50.455Z,30.37
2022-08-26T07:16:27.508Z,30.59
2022-08-26T07:18:59.329Z,30.73
2022-08-26T07:21:33.107Z,30.88
2022-08-26T07:24:04.771Z,31.07
2022-08-26T07:26:36.422Z,31.18
2022-08-26T07:29:09.888Z,31.32
2022-08-26T07:31:42.691Z,31.38
2022-08-26T07:34:17.134Z,31.46
2022-08-26T07:36:51.462Z,31.59
2022-08-26T07:39:26.788Z,31.74
2022-08-26T07:41:59.936Z,31.95
2022-08-26T07:44:31.645Z,32.15
2022-08-26T07:47:03.746Z,32.26
2022-08-26T07:49:42.690Z,32.33
2022-08-26T07:52:14.321Z,32.51
2022-08-26T07:54:45.903Z,32.38
2022-08-26T07:57:17.493Z,32.31
2022-08-26T07:59:51.063Z,32.40
2022-08-26T08:02:24.129Z,32.47
2022-08-26T08:04:56.845Z,32.59
2022-08-26T08:07:44.530Z,32.87
2022-08-26T08:10:21.063Z,33.07
2022-08-26T08:12:53.476Z,33.10
2022-08-26T08:15:28.747Z,33.28
2022-08-26T08:18:00.998Z,33.46
2022-08-26T08:20:34.114Z,33.83
2022-08-26T08:23:05.773Z,33.91
2022-08-26T08:25:38.178Z,33.99
2022-08-26T08:28:09.970Z,33.94
2022-08-26T08:30:42.970Z,33.26
2022-08-26T08:33:14.898Z,33.12
2022-08-26T08:35:46.490Z,32.73
2022-08-26T08:38:18.476Z,33.17
2022-08-26T08:40:50.784Z,33.10
2022-08-26T08:43:38.373Z,33.24
2022-08-26T08:46:16.804Z,33.54
2022-08-26T08:48:57.190Z,33.88
2022-08-26T08:51:52.311Z,34.25
2022-08-26T08:54:26.762Z,34.06
2022-08-26T08:58:02.070Z,34.07
2022-08-26T09:00:58.591Z,34.05
2022-08-26T09:03:53.508Z,33.94
2022-08-26T09:06:25.700Z,34.11
2022-08-26T09:09:04.800Z,34.35
2022-08-26T09:11:38.788Z,34.56
2022-08-26T09:14:10.699Z,34.53
2022-08-26T09:16:59.127Z,34.29
2022-08-26T09:20:01.341Z,33.91
2022-08-26T09:22:39.117Z,33.91
2022-08-26T09:25:13.737Z,34.20
2022-08-26T09:27:50.263Z,34.34
2022-08-26T09:30:32.946Z,34.65
2022-08-26T09:33:11.161Z,34.95
2022-08-26T09:35:47.305Z,34.98
2022-08-26T09:38:28.021Z,34.76
2022-08-26T09:41:05.420Z,35.12
2022-08-26T09:43:38.414Z,35.55
2022-08-26T09:46:18.597Z,35.74
2022-08-26T09:48:51.793Z,35.80
2022-08-26T09:51:30.776Z,35.91
2022-08-26T09:54:05.717Z,35.66
2022-08-26T09:56:39.837Z,35.42
2022-08-26T09:59:14.301Z,35.07
2022-08-26T10:01:50.659Z,34.82
2022-08-26T10:04:31.907Z,34.52
2022-08-26T10:07:08.094Z,34.57
2022-08-26T10:09:43.138Z,34.70
2022-08-26T10:12:21.413Z,34.99
2022-08-26T10:14:57.477Z,35.02
2022-08-26T10:17:38.481Z,34.86
2022-08-26T10:20:26.345Z,34.87
2022-08-26T10:23:18.525Z,33.85
2022-08-26T10:26:02.829Z,33.51
2022-08-26T10:28:50.079Z,33.64
2022-08-26T10:31:40.598Z,33.75
2022-08-26T10:34:14.148Z,33.90
2022-08-26T10:37:14.725Z,34.07
2022-08-26T10:40:16.120Z,33.88
2022-08-26T10:43:12.451Z,33.49
2022-08-26T10:45:51.313Z,33.38
2022-08-26T10:48:43.931Z,33.61
2022-08-26T10:51:28.814Z,33.56
2022-08-26T10:54:37.362Z,33.46
2022-08-26T10:57:30.378Z,33.21
2022-08-26T11:00:44.053Z,32.72
2022-08-26T11:03:21.710Z,32.28
2022-08-26T11:06:19.148Z,32.07
2022-08-26T11:08:53.949Z,32.13
2022-08-26T11:11:40.552Z,31.96
2022-08-26T11:14:28.953Z,31.81
2022-08-26T11:17:02.121Z,31.96
2022-08-26T11:19:59.599Z,32.19
2022-08-26T11:22:47.918Z,32.64
2022-08-26T11:25:24.439Z,32.85
2022-08-26T11:28:00.617Z,33.05
2022-08-26T11:30:42.703Z,33.07
2022-08-26T11:33:43.879Z,32.95
2022-08-26T11:36:51.920Z,32.47
2022-08-26T11:39:54.723Z,32.36
2022-08-26T11:42:42.722Z,31.83
2022-08-26T11:45:17.965Z,31.75
2022-08-26T11:47:50.132Z,31.91
2022-08-26T11:50:26.393Z,32.13
2022-08-26T11:53:06.282Z,32.29
2022-08-26T11:55:44.889Z,32.10
2022-08-26T11:58:22.307Z,31.87
2022-08-26T12:01:27.446Z,31.67
2022-08-26T12:04:08.282Z,31.57
2022-08-26T12:06:47.402Z,31.44
2022-08-26T12:09:28.565Z,31.51
2022-08-26T12:12:12.105Z,31.45
2022-08-26T12:14:44.701Z,31.57
2022-08-26T12:17:28.597Z,31.77
2022-08-26T12:20:00.240Z,31.98
2022-08-26T12:22:35.925Z,32.03
2022-08-26T12:25:10.124Z,31.96
2022-08-26T12:27:44.074Z,31.58
2022-08-26T12:30:22.465Z,31.14
2022-08-26T12:33:22.494Z,30.93
2022-08-26T12:35:56.653Z,30.96
2022-08-26T12:38:29.902Z,31.18
2022-08-26T12:41:01.694Z,31.40
2022-08-26T12:43:40.637Z,31.26
2022-08-26T12:46:26.906Z,31.05
2022-08-26T12:49:03.919Z,30.97
2022-08-26T12:51:41.979Z,30.80
2022-08-26T12:54:15.938Z,30.63
2022-08-26T12:56:47.637Z,30.70
2022-08-26T12:59:26.076Z,30.86
2022-08-26T13:01:58.052Z,31.02
2022-08-26T13:04:33.908Z,31.08
2022-08-26T13:07:34.628Z,30.96
2022-08-26T13:10:06.622Z,30.95
2022-08-26T13:12:42.061Z,30.93
2022-08-26T13:15:13.671Z,30.84
2022-08-26T13:17:45.308Z,30.78
2022-08-26T13:20:17.072Z,30.71
2022-08-26T13:22:51.697Z,30.66
2022-08-26T13:25:30.124Z,30.72
2022-08-26T13:28:01.898Z,30.87
2022-08-26T13:30:33.637Z,30.99
2022-08-26T13:33:06.339Z,31.12
2022-08-26T13:35:38.730Z,31.37
2022-08-26T13:38:22.369Z,31.59
2022-08-26T13:41:06.303Z,31.76
2022-08-26T13:43:37.995Z,31.74
2022-08-26T13:46:09.662Z,31.54
2022-08-26T13:48:41.315Z,31.51
2022-08-26T13:51:18.587Z,31.42
2022-08-26T13:53:52.400Z,31.24
2022-08-26T13:56:24.578Z,31.16
2022-08-26T13:58:57.946Z,31.05
2022-08-26T14:01:31.137Z,31.04
2022-08-26T14:04:03.325Z,31.11
2022-08-26T14:06:34.948Z,31.17
2022-08-26T14:09:06.622Z,31.15
2022-08-26T14:11:41.281Z,31.29
2022-08-26T14:14:26.934Z,31.33
2022-08-26T14:17:00.282Z,31.30
2022-08-26T14:19:32.371Z,31.40
2022-08-26T14:22:04.185Z,31.51
2022-08-26T14:24:35.811Z,31.57
2022-08-26T14:27:07.444Z,31.66
2022-08-26T14:29:40.034Z,31.77
2022-08-26T14:32:24.678Z,31.77
2022-08-26T14:34:56.493Z,31.68
2022-08-26T14:37:28.159Z,31.53
2022-08-26T14:39:59.888Z,31.49
2022-08-26T14:42:32.299Z,31.57
2022-08-26T14:45:07.201Z,31.57
2022-08-26T14:47:39.309Z,31.58
2022-08-26T14:50:17.302Z,31.55
2022-08-26T14:53:07.876Z,31.40
2022-08-26T14:55:41.859Z,30.75
2022-08-26T14:58:13.479Z,30.39
2022-08-26T15:00:45.140Z,30.08
2022-08-26T15:05:55.589Z,29.44
2022-08-26T15:08:27.253Z,29.24
2022-08-26T15:10:59.611Z,29.00
2022-08-26T15:13:33.921Z,28.67
2022-08-26T15:16:07.165Z,28.33
2022-08-26T15:18:41.728Z,28.05
2022-08-26T15:21:13.343Z,27.82
2022-08-26T15:23:47.787Z,27.63
2022-08-26T15:26:20.917Z,27.40
2022-08-26T15:28:52.720Z,27.23
2022-08-26T15:31:31.384Z,27.21
2022-08-26T15:34:06.387Z,27.22
2022-08-26T15:36:38.481Z,27.17
2022-08-26T15:39:10.653Z,27.12
2022-08-26T15:41:42.435Z,26.89
2022-08-26T15:44:14.360Z,26.19
2022-08-26T15:46:48.349Z,25.83
2022-08-26T15:49:20.092Z,25.43
2022-08-26T15:51:53.311Z,24.39
2022-08-26T15:54:25.005Z,23.70
2022-08-26T15:56:59.487Z,23.38
2022-08-26T15:59:34.164Z,23.26
2022-08-26T16:02:05.943Z,23.38
2022-08-26T16:04:37.604Z,23.45
2022-08-26T16:07:09.256Z,23.28
2022-08-26T16:09:40.866Z,23.31
2022-08-26T16:12:12.551Z,23.35
2022-08-26T16:14:45.562Z,23.26
2022-08-26T16:17:18.275Z,23.27
2022-08-26T16:19:49.971Z,23.10
2022-08-26T16:22:21.628Z,23.00
2022-08-26T16:24:58.250Z,22.93
2022-08-26T16:27:29.863Z,22.62
2022-08-26T16:30:03.642Z,22.58
2022-08-26T16:32:35.318Z,22.67
2022-08-26T16:35:07.438Z,22.78
2022-08-26T16:37:39.490Z,22.88
2022-08-26T16:40:11.462Z,22.94
2022-08-26T16:42:45.093Z,22.89
2022-08-26T16:45:17.176Z,22.78
2022-08-26T16:47:50.022Z,22.82
2022-08-26T16:50:25.937Z,22.89
2022-08-26T16:52:57.611Z,22.93
2022-08-26T16:55:30.044Z,22.96
2022-08-26T16:58:02.312Z,23.01
2022-08-26T17:00:34.699Z,23.07
2022-08-26T17:03:06.490Z,23.03
2022-08-26T17:05:40.875Z,22.93
2022-08-26T17:08:16.359Z,22.89
2022-08-26T17:11:01.035Z,22.92
2022-08-26T17:13:35.245Z,22.86
2022-08-26T17:16:09.807Z,22.72
2022-08-26T17:18:41.532Z,22.71
2022-08-26T17:21:16.265Z,22.68
2022-08-26T17:23:48.060Z,22.71
2022-08-26T17:26:20.212Z,22.76
2022-08-26T17:28:52.591Z,22.80
2022-08-26T17:31:27.234Z,22.85
2022-08-26T17:33:59.005Z,22.89
2022-08-26T17:36:30.579Z,22.82
2022-08-26T17:39:02.286Z,22.85
2022-08-26T17:41:33.994Z,22.88
2022-08-26T17:44:05.840Z,22.93
2022-08-26T17:46:38.492Z,22.97
2022-08-26T17:49:10.314Z,22.98
2022-08-26T17:51:41.928Z,22.97
2022-08-26T17:54:14.441Z,22.94
2022-08-26T17:56:46.042Z,22.94
2022-08-26T17:59:20.655Z,22.97
2022-08-26T18:01:56.656Z,22.99
2022-08-26T18:04:28.418Z,23.01
2022-08-26T18:07:00.081Z,23.01
2022-08-26T18:09:32.352Z,23.00
2022-08-26T18:12:09.067Z,22.98
2022-08-26T18:14:40.691Z,22.91
2022-08-26T18:17:12.376Z,22.74
2022-08-26T18:19:49.174Z,22.64
2022-08-26T18:22:21.933Z,22.66
2022-08-26T18:24:58.847Z,22.71
2022-08-26T18:27:30.948Z,22.81
2022-08-26T18:30:09.805Z,22.85
2022-08-26T18:32:44.280Z,22.84
2022-08-26T18:35:16.844Z,22.87
2022-08-26T18:37:48.405Z,22.93
2022-08-26T18:40:22.100Z,22.98
2022-08-26T18:42:54.037Z,22.92
2022-08-26T18:45:25.951Z,22.91
2022-08-26T18:47:57.544Z,22.91
2022-08-26T18:50:30.633Z,22.95
2022-08-26T18:53:02.550Z,22.97
2022-08-26T18:55:34.238Z,23.02
2022-08-26T18:58:05.826Z,23.04
2022-08-26T19:00:37.804Z,22.93
2022-08-26T19:03:18.452Z,22.90
2022-08-26T19:05:50.804Z,22.88
2022-08-26T19:08:22.600Z,22.90
2022-08-26T19:10:54.278Z,22.83
2022-08-26T19:13:25.904Z,22.82
2022-08-26T19:15:57.594Z,22.83
2022-08-26T19:18:29.521Z,22.86
2022-08-26T19:21:03.517Z,22.87
2022-08-26T19:23:35.357Z,22.81
2022-08-26T19:26:07.701Z,22.83
2022-08-26T19:28:40.811Z,22.85
2022-08-26T19:31:12.747Z,22.82
2022-08-26T19:33:45.400Z,22.81
2022-08-26T19:36:21.727Z,22.81
2022-08-26T19:38:54.357Z,22.79
2022-08-26T19:41:37.240Z,22.75
2022-08-26T19:44:35.076Z,22.70
2022-08-26T19:47:08.882Z,22.66
2022-08-26T19:49:40.870Z,22.65
2022-08-26T19:52:12.551Z,22.67
2022-08-26T19:54:44.573Z,22.64
2022-08-26T19:57:16.925Z,22.62
2022-08-26T19:59:48.604Z,22.61
2022-08-26T20:02:22.298Z,22.57
2022-08-26T20:04:54.585Z,22.55
2022-08-26T20:07:26.706Z,22.53
2022-08-26T20:09:59.476Z,22.49
2022-08-26T20:12:33.592Z,22.46
2022-08-26T20:15:05.818Z,22.42
2022-08-26T20:17:38.386Z,22.35
2022-08-26T20:20:33.787Z,22.32
2022-08-26T20:23:06.048Z,22.33
2022-08-26T20:25:38.028Z,22.33
2022-08-26T20:28:10.027Z,22.34
2022-08-26T20:30:41.906Z,22.33
2022-08-26T20:33:13.557Z,22.35
2022-08-26T20:35:49.169Z,22.39
2022-08-26T20:38:21.581Z,22.46
2022-08-26T20:40:54.127Z,22.50
2022-08-26T20:43:28.059Z,22.49
2022-08-26T20:46:00.711Z,22.44
2022-08-26T20:48:35.022Z,22.38
2022-08-26T20:51:06.787Z,22.28
2022-08-26T20:53:41.367Z,22.23
2022-08-26T20:56:15.334Z,22.20
2022-08-26T20:58:47.160Z,22.15
2022-08-26T21:01:24.562Z,22.01
2022-08-26T21:03:57.215Z,21.98
2022-08-26T21:06:29.665Z,21.95
2022-08-26T21:09:04.137Z,21.86
2022-08-26T21:11:37.164Z,21.77
2022-08-26T21:14:16.260Z,21.77
2022-08-26T21:16:49.878Z,21.75
2022-08-26T21:19:21.735Z,21.69
2022-08-26T21:21:53.696Z,21.69
2022-08-26T21:24:25.396Z,21.66
2022-08-26T21:26:57.065Z,21.66
2022-08-26T21:29:28.710Z,21.63
2022-08-26T21:32:00.484Z,21.61
2022-08-26T21:34:32.277Z,21.57
2022-08-26T21:37:08.961Z,21.58
2022-08-26T21:39:48.474Z,21.61
2022-08-26T21:42:20.420Z,21.65
2022-08-26T21:44:53.485Z,21.65
2022-08-26T21:47:25.674Z,21.55
2022-08-26T21:49:57.427Z,21.51
2022-08-26T21:52:29.365Z,21.46
2022-08-26T21:55:02.376Z,21.45
2022-08-26T21:57:34.292Z,21.47
2022-08-26T22:00:09.031Z,21.45
2022-08-26T22:02:40.702Z,21.40
2022-08-26T22:05:12.454Z,21.31
2022-08-26T22:07:46.140Z,21.23
2022-08-26T22:10:17.814Z,21.10
2022-08-26T22:12:49.436Z,21.04
2022-08-26T22:15:23.277Z,21.01
2022-08-26T22:17:54.982Z,21.05
2022-08-26T22:20:26.638Z,21.00
2022-08-26T22:22:59.026Z,21.01
2022-08-26T22:25:30.813Z,21.03
2022-08-26T22:28:02.637Z,21.05
2022-08-26T22:30:35.377Z,21.03
2022-08-26T22:33:07.030Z,21.03
2022-08-26T22:35:43.720Z,21.03
2022-08-26T22:38:16.028Z,21.05
2022-08-26T22:40:57.140Z,21.05
2022-08-26T22:43:29.537Z,21.04
2022-08-26T22:46:01.276Z,21.02
2022-08-26T22:48:32.913Z,21.01
2022-08-26T22:51:05.374Z,21.00
2022-08-26T22:53:40.044Z,20.96
2022-08-26T22:56:14.554Z,20.92
2022-08-26T22:58:49.377Z,20.89
2022-08-26T23:01:21.200Z,20.88
2022-08-26T23:03:53.571Z,20.83
2022-08-26T23:06:25.255Z,20.77
2022-08-26T23:08:56.890Z,20.72
2022-08-26T23:11:28.529Z,20.72
2022-08-26T23:14:05.040Z,20.72
2022-08-26T23:16:41.606Z,20.71
2022-08-26T23:19:15.096Z,20.64
2022-08-26T23:21:47.625Z,20.60
2022-08-26T23:24:19.381Z,20.56
2022-08-26T23:26:51.092Z,20.53
2022-08-26T23:29:22.716Z,20.51
2022-08-26T23:31:54.544Z,20.50
2022-08-26T23:34:44.735Z,20.47
2022-08-26T23:37:19.631Z,20.45
2022-08-26T23:39:52.841Z,20.44
2022-08-26T23:42:27.851Z,20.42
2022-08-26T23:45:02.684Z,20.41
2022-08-26T23:47:35.127Z,20.40
2022-08-26T23:50:08.298Z,20.35
2022-08-26T23:52:58.558Z,20.32
2022-08-26T23:55:34.475Z,20.32
2022-08-26T23:58:06.713Z,20.33
